createdAt,value
2023-02-13T00:00:59.133Z,99920.31
2023-02-13T00:06:01.348Z,99926.03
2023-02-13T00:11:03.423Z,99923.88
2023-02-13T00:16:06.644Z,99926.53
2023-02-13T00:21:15.670Z,99924.44
2023-02-13T00:26:18.819Z,99927.97
2023-02-13T00:31:22.783Z,99923.00
2023-02-13T00:36:25.691Z,99924.03
2023-02-13T00:41:28.589Z,99916.41
2023-02-13T00:46:31.108Z,99918.25
2023-02-13T00:51:33.628Z,99925.97
2023-02-13T00:56:36.079Z,99922.59
2023-02-13T01:01:38.594Z,99918.72
2023-02-13T01:06:41.285Z,99919.38
2023-02-13T01:11:43.730Z,99906.34
2023-02-13T01:16:46.445Z,99914.31
2023-02-13T01:21:48.954Z,99916.84
2023-02-13T01:26:54.384Z,99912.81
2023-02-13T01:31:56.835Z,99902.72
2023-02-13T01:37:03.996Z,99898.91
2023-02-13T01:42:14.864Z,99901.50
2023-02-13T01:47:45.114Z,99900.94
2023-02-13T01:52:57.495Z,99899.00
2023-02-13T01:58:07.291Z,99902.06
2023-02-13T02:03:17.659Z,99905.31
2023-02-13T02:08:21.097Z,99901.78
2023-02-13T02:13:28.346Z,99898.91
2023-02-13T02:18:38.410Z,99901.69
2023-02-13T02:23:53.323Z,99898.00
2023-02-13T02:29:14.692Z,99892.47
2023-02-13T02:34:32.302Z,99889.94
2023-02-13T02:40:05.459Z,99896.72
2023-02-13T02:45:38.203Z,99895.56
2023-02-13T02:50:54.890Z,99880.06
2023-02-13T02:56:20.753Z,99888.13
2023-02-13T03:01:45.709Z,99886.41
2023-02-13T03:06:59.679Z,99895.94
2023-02-13T03:12:21.992Z,99898.72
2023-02-13T03:17:42.942Z,99901.47
2023-02-13T03:23:12.329Z,99904.84
2023-02-13T03:28:55.151Z,99904.84
2023-02-13T03:34:00.488Z,99906.91
2023-02-13T03:39:23.899Z,99907.34
2023-02-13T03:44:30.626Z,99905.78
2023-02-13T03:49:59.384Z,99905.66
2023-02-13T03:55:42.875Z,99910.19
2023-02-13T04:00:50.543Z,99914.50
2023-02-13T04:06:15.319Z,99925.06
2023-02-13T04:11:29.881Z,99928.88
2023-02-13T04:16:43.004Z,99934.28
2023-02-13T04:21:49.490Z,99943.25
2023-02-13T04:26:52.794Z,99936.91
2023-02-13T04:31:55.345Z,99939.78
2023-02-13T04:36:57.802Z,99941.66
2023-02-13T04:42:00.484Z,99929.19
2023-02-13T04:47:02.858Z,99932.44
2023-02-13T04:52:05.358Z,99938.25
2023-02-13T04:57:07.814Z,99946.84
2023-02-13T05:02:10.230Z,99948.97
2023-02-13T05:07:12.638Z,99948.50
2023-02-13T05:12:16.183Z,99947.16
2023-02-13T05:17:19.246Z,99944.13
2023-02-13T05:22:40.075Z,99942.66
2023-02-13T05:27:42.489Z,99943.84
2023-02-13T05:32:44.899Z,99946.69
2023-02-13T05:37:47.889Z,99947.66
2023-02-13T05:42:54.275Z,99951.56
2023-02-13T05:47:56.845Z,99954.22
2023-02-13T05:52:59.245Z,99940.25
2023-02-13T05:58:01.628Z,99946.59
2023-02-13T06:03:04.217Z,99939.50
2023-02-13T06:08:06.762Z,99944.03
2023-02-13T06:13:09.188Z,99937.09
2023-02-13T06:18:12.319Z,99946.31
2023-02-13T06:23:15.540Z,99941.59
2023-02-13T06:28:18.303Z,99944.66
2023-02-13T06:33:20.823Z,99942.91
2023-02-13T06:38:24.401Z,99950.66
2023-02-13T06:43:27.600Z,99950.16
2023-02-13T06:48:30.055Z,99953.22
2023-02-13T06:53:32.773Z,99947.88
2023-02-13T06:58:35.529Z,99958.53
2023-02-13T07:03:37.988Z,99956.72
2023-02-13T07:08:40.384Z,99956.72
2023-02-13T07:13:43.668Z,99959.03
2023-02-13T07:18:46.638Z,99958.75
2023-02-13T07:23:49.257Z,99959.31
2023-02-13T07:29:05.653Z,99962.69
2023-02-13T07:34:12.738Z,99975.81
2023-02-13T07:39:15.125Z,99968.81
2023-02-13T07:44:18.089Z,99977.31
2023-02-13T07:49:20.626Z,99977.47
2023-02-13T07:54:23.272Z,99973.88
2023-02-13T07:59:25.937Z,99976.50
2023-02-13T08:04:28.396Z,99969.09
2023-02-13T08:09:49.260Z,99964.06
2023-02-13T08:14:53.082Z,99968.59
2023-02-13T08:19:55.534Z,99969.28
2023-02-13T08:24:57.974Z,99976.59
2023-02-13T08:30:01.905Z,99972.41
2023-02-13T08:35:04.506Z,99975.41
2023-02-13T08:40:10.696Z,99965.59
2023-02-13T08:45:13.312Z,99958.72
2023-02-13T08:50:15.820Z,99956.56
2023-02-13T08:55:18.530Z,99954.34
2023-02-13T09:00:21.611Z,99950.63
2023-02-13T09:05:24.268Z,99958.25
2023-02-13T09:10:26.754Z,99957.56
2023-02-13T09:15:29.652Z,99964.69
2023-02-13T09:20:32.408Z,99955.91
2023-02-13T09:25:34.804Z,99965.59
2023-02-13T09:30:37.488Z,99964.88
2023-02-13T09:35:42.272Z,99960.91
2023-02-13T09:40:56.540Z,99962.03
2023-02-13T09:46:13.490Z,99963.75
2023-02-13T09:51:19.456Z,99972.59
2023-02-13T09:56:47.188Z,99966.28
2023-02-13T10:01:53.907Z,99970.44
2023-02-13T10:07:19.190Z,99967.44
2023-02-13T10:12:35.542Z,99964.84
2023-02-13T10:17:43.132Z,99968.97
2023-02-13T10:22:54.201Z,99969.00
2023-02-13T10:28:04.802Z,99964.28
2023-02-13T10:33:18.886Z,99967.66
2023-02-13T10:38:23.560Z,99958.50
2023-02-13T10:43:30.134Z,99952.59
2023-02-13T10:48:44.811Z,99949.75
2023-02-13T10:54:00.174Z,99939.81
2023-02-13T10:59:25.939Z,99935.41
2023-02-13T11:04:30.184Z,99932.31
2023-02-13T11:09:40.020Z,99922.00
2023-02-13T11:15:08.088Z,99918.47
2023-02-13T11:20:29.119Z,99919.53
2023-02-13T11:25:31.737Z,99912.88
2023-02-13T11:30:36.283Z,99911.78
2023-02-13T11:35:39.037Z,99906.50
2023-02-13T11:40:45.122Z,99910.00
2023-02-13T11:45:47.838Z,99914.16
2023-02-13T11:50:56.216Z,99906.59
2023-02-13T11:56:16.879Z,99907.50
2023-02-13T12:01:21.700Z,99902.78
2023-02-13T12:06:24.010Z,99898.34
2023-02-13T12:11:42.527Z,99907.81
2023-02-13T12:17:06.376Z,99904.31
2023-02-13T12:23:08.009Z,99899.88
2023-02-13T12:28:20.303Z,99891.03
2023-02-13T12:33:28.006Z,99898.34
2023-02-13T12:38:47.262Z,99892.69
2023-02-13T12:44:32.842Z,99891.66
2023-02-13T12:49:59.401Z,99879.78
2023-02-13T12:55:19.431Z,99880.16
2023-02-13T13:00:49.655Z,99869.44
2023-02-13T13:06:11.991Z,99862.34
2023-02-13T13:11:51.727Z,99865.13
2023-02-13T13:17:20.788Z,99863.72
2023-02-13T13:22:43.227Z,99855.41
2023-02-13T13:27:52.569Z,99864.03
2023-02-13T13:33:15.700Z,99862.91
2023-02-13T13:38:52.147Z,99857.63
2023-02-13T13:44:54.306Z,99856.13
2023-02-13T13:50:00.046Z,99854.41
2023-02-13T13:55:04.554Z,99848.53
2023-02-13T14:00:12.094Z,99846.03
2023-02-13T14:05:24.449Z,99848.16
2023-02-13T14:10:26.854Z,99860.66
2023-02-13T14:15:38.340Z,99851.31
2023-02-13T14:20:54.307Z,99846.63
2023-02-13T14:26:15.642Z,99853.59
2023-02-13T14:31:29.434Z,99851.88
2023-02-13T14:36:35.273Z,99858.19
2023-02-13T14:41:59.875Z,99845.28
2023-02-13T14:47:05.904Z,99852.69
2023-02-13T14:52:27.708Z,99849.47
2023-02-13T14:57:38.013Z,99844.13
2023-02-13T15:02:49.824Z,99843.31
2023-02-13T15:08:16.129Z,99836.28
2023-02-13T15:13:37.516Z,99835.44
2023-02-13T15:18:52.688Z,99837.75
2023-02-13T15:23:57.619Z,99821.78
2023-02-13T15:29:05.830Z,99822.19
2023-02-13T15:34:32.365Z,99820.63
2023-02-13T15:39:35.079Z,99819.69
2023-02-13T15:44:39.882Z,99822.56
2023-02-13T15:49:48.381Z,99829.97
2023-02-13T15:54:53.037Z,99827.13
2023-02-13T15:59:57.668Z,99826.56
2023-02-13T16:05:02.666Z,99831.00
2023-02-13T16:10:28.243Z,99827.13
2023-02-13T16:15:35.855Z,99828.88
2023-02-13T16:20:39.016Z,99831.59
2023-02-13T16:25:41.734Z,99824.38
2023-02-13T16:30:47.369Z,99823.38
2023-02-13T16:35:52.387Z,99824.81
2023-02-13T16:40:57.974Z,99825.81
2023-02-13T16:46:15.600Z,99825.47
2023-02-13T16:51:29.595Z,99834.56
2023-02-13T16:57:05.648Z,99838.41
2023-02-13T17:02:28.929Z,99844.38
2023-02-13T17:07:36.096Z,99843.94
2023-02-13T17:12:39.210Z,99856.94
2023-02-13T17:17:41.414Z,99853.81
2023-02-13T17:22:47.368Z,99858.25
2023-02-13T17:27:52.054Z,99864.69
2023-02-13T17:33:13.892Z,99874.44
2023-02-13T17:38:16.392Z,99883.94
2023-02-13T17:43:20.780Z,99878.34
2023-02-13T17:48:24.248Z,99880.41
2023-02-13T17:53:31.241Z,99879.34
2023-02-13T17:58:33.278Z,99883.50
2023-02-13T18:03:35.341Z,99879.72
2023-02-13T18:08:37.543Z,99887.03
2023-02-13T18:13:44.014Z,99880.34
2023-02-13T18:18:46.304Z,99886.03
2023-02-13T18:23:52.358Z,99894.28
2023-02-13T18:28:54.445Z,99896.41
2023-02-13T18:33:56.978Z,99908.28
2023-02-13T18:38:58.972Z,99896.75
2023-02-13T18:44:00.960Z,99891.28
2023-02-13T18:49:03.186Z,99896.03
2023-02-13T18:54:05.834Z,99906.72
2023-02-13T18:59:07.917Z,99907.50
2023-02-13T19:04:11.174Z,99908.84
2023-02-13T19:09:13.598Z,99903.47
2023-02-13T19:14:15.998Z,99919.19
2023-02-13T19:19:18.459Z,99919.84
2023-02-13T19:24:20.755Z,99909.28
2023-02-13T19:29:23.156Z,99911.00
2023-02-13T19:34:25.407Z,99910.78
2023-02-13T19:39:27.490Z,99908.88
2023-02-13T19:44:29.506Z,99904.38
2023-02-13T19:49:31.704Z,99901.38
2023-02-13T19:54:34.174Z,99896.47
2023-02-13T19:59:36.556Z,99907.72
2023-02-13T20:04:40.086Z,99906.84
2023-02-13T20:09:43.257Z,99898.19
2023-02-13T20:14:46.167Z,99886.41
2023-02-13T20:19:49.282Z,99885.97
2023-02-13T20:24:51.980Z,99891.22
2023-02-13T20:30:03.378Z,99896.75
2023-02-13T20:35:09.449Z,99897.28
2023-02-13T20:40:12.436Z,99904.25
2023-02-13T20:45:15.134Z,99904.22
2023-02-13T20:50:18.065Z,99900.72
2023-02-13T20:55:20.835Z,99896.44
2023-02-13T21:00:23.845Z,99902.66
2023-02-13T21:05:26.270Z,99899.63
2023-02-13T21:10:28.728Z,99890.38
2023-02-13T21:15:31.478Z,99886.28
2023-02-13T21:20:33.910Z,99874.94
2023-02-13T21:25:36.592Z,99879.44
2023-02-13T21:30:39.158Z,99872.03
2023-02-13T21:35:41.707Z,99879.22
2023-02-13T21:40:44.172Z,99868.00
2023-02-13T21:45:46.780Z,99860.31
2023-02-13T21:50:49.589Z,99867.88
2023-02-13T21:55:52.190Z,99859.03
2023-02-13T22:00:54.800Z,99854.97
2023-02-13T22:05:57.478Z,99859.44
2023-02-13T22:11:01.119Z,99855.63
2023-02-13T22:16:09.076Z,99852.50
2023-02-13T22:21:13.885Z,99857.19
2023-02-13T22:26:23.716Z,99863.44
2023-02-13T22:31:26.402Z,99868.09
2023-02-13T22:36:28.908Z,99869.19
2023-02-13T22:41:31.324Z,99866.03
2023-02-13T22:46:34.926Z,99871.66
2023-02-13T22:51:37.601Z,99868.53
2023-02-13T22:56:40.044Z,99863.16
2023-02-13T23:01:42.642Z,99866.41
2023-02-13T23:06:45.190Z,99860.69
2023-02-13T23:12:06.529Z,99859.38
2023-02-13T23:17:27.462Z,99850.19
2023-02-13T23:22:30.418Z,99850.22
2023-02-13T23:27:33.575Z,99843.94
2023-02-13T23:32:35.982Z,99861.50
2023-02-13T23:37:38.757Z,99859.88
2023-02-13T23:42:41.629Z,99853.22
2023-02-13T23:47:44.029Z,99845.22
2023-02-13T23:52:46.529Z,99850.56
2023-02-13T23:57:52.007Z,99842.13
